Time,TemperatureF,DewpointF,PressureIn,WindDirection,WindDirectionDegrees,WindSpeedMPH,WindSpeedGustMPH,Humidity,HourlyPrecipIn,Conditions,Clouds,dailyrainin,SoftwareType,DateUTC
2013-02-12 00:00:00,29.1,26.8,30.17,WSW,243,0.0,0.0,91,0.00,,,0.00,Wunderground v.1.15,2013-02-12 06:00:00,
2013-02-12 00:05:00,29.2,26.9,30.17,WSW,243,0.0,0.0,91,0.00,,,0.00,Wunderground v.1.15,2013-02-12 06:05:00,
2013-02-12 00:10:00,29.2,26.6,30.17,WSW,243,0.0,0.0,90,0.00,,,0.00,Wunderground v.1.15,2013-02-12 06:10:00,
2013-02-12 00:15:00,29.2,26.9,30.17,WSW,243,0.0,0.0,91,0.00,,,0.00,Wunderground v.1.15,2013-02-12 06:15:00,
2013-02-12 00:20:00,29.2,26.9,30.17,WSW,243,0.0,0.0,91,0.00,,,0.00,Wunderground v.1.15,2013-02-12 06:20:00,
2013-02-12 00:25:00,29.2,26.9,30.17,WSW,243,0.0,0.0,91,0.00,,,0.00,Wunderground v.1.15,2013-02-12 06:25:00,
2013-02-12 00:30:00,29.3,27.0,30.17,WSW,243,0.0,0.0,91,0.00,,,0.00,Wunderground v.1.15,2013-02-12 06:30:00,
2013-02-12 00:35:00,29.3,27.0,30.18,WSW,243,0.0,0.0,91,0.00,,,0.00,Wunderground v.1.15,2013-02-12 06:35:00,
2013-02-12 00:40:00,29.4,27.1,30.18,WSW,243,0.0,0.0,91,0.00,,,0.00,Wunderground v.1.15,2013-02-12 06:40:00,
2013-02-12 00:45:00,29.5,27.2,30.18,WSW,243,0.0,0.0,91,0.00,,,0.00,Wunderground v.1.15,2013-02-12 06:45:00,
2013-02-12 00:50:00,29.8,27.5,30.17,SSW,192,0.0,0.0,91,0.00,,,0.00,Wunderground v.1.15,2013-02-12 06:50:00,
2013-02-12 00:55:00,29.9,27.6,30.17,South,191,0.0,0.0,91,0.00,,,0.00,Wunderground v.1.15,2013-02-12 06:55:00,
2013-02-12 01:00:00,29.9,27.6,30.17,South,191,0.0,0.0,91,0.00,,,0.00,Wunderground v.1.15,2013-02-12 07:00:00,
2013-02-12 01:05:00,29.7,27.4,30.17,South,191,0.0,0.0,91,0.00,,,0.00,Wunderground v.1.15,2013-02-12 07:05:00,
2013-02-12 01:10:00,29.4,27.1,30.17,SSW,193,0.0,0.0,91,0.00,,,0.00,Wunderground v.1.15,2013-02-12 07:10:00,
2013-02-12 01:15:00,29.3,27.0,30.17,SSW,193,0.0,0.0,91,0.00,,,0.00,Wunderground v.1.15,2013-02-12 07:15:00,
2013-02-12 01:20:00,29.0,26.7,30.17,SSW,193,0.0,0.0,91,0.00,,,0.00,Wunderground v.1.15,2013-02-12 07:20:00,
2013-02-12 01:25:00,29.1,27.1,30.17,SSW,193,0.0,0.0,92,0.00,,,0.00,Wunderground v.1.15,2013-02-12 07:25:00,
2013-02-12 01:30:00,29.1,27.1,30.17,SSW,193,0.0,0.0,92,0.00,,,0.00,Wunderground v.1.15,2013-02-12 07:30:00,
2013-02-12 01:35:00,28.8,26.8,30.17,SSW,193,0.0,0.0,92,0.00,,,0.00,Wunderground v.1.15,2013-02-12 07:35:00,
2013-02-12 01:40:00,28.7,26.9,30.17,SSW,193,0.0,0.0,93,0.00,,,0.00,Wunderground v.1.15,2013-02-12 07:40:00,
2013-02-12 01:45:00,28.8,27.0,30.17,SSW,193,0.0,0.0,93,0.00,,,0.00,Wunderground v.1.15,2013-02-12 07:45:00,
2013-02-12 01:50:00,28.6,26.8,30.17,SSW,193,0.0,0.0,93,0.00,,,0.00,Wunderground v.1.15,2013-02-12 07:50:00,
2013-02-12 01:55:00,28.6,26.8,30.16,SSW,193,0.0,0.0,93,0.00,,,0.00,Wunderground v.1.15,2013-02-12 07:55:00,
2013-02-12 02:00:00,28.7,26.9,30.17,SSW,193,0.0,0.0,93,0.00,,,0.00,Wunderground v.1.15,2013-02-12 08:00:00,
2013-02-12 02:04:00,28.6,26.8,30.17,SSW,193,0.0,0.0,93,0.00,,,0.00,Wunderground v.1.15,2013-02-12 08:04:00,
2013-02-12 02:09:00,28.3,26.5,30.17,SSW,193,0.0,0.0,93,0.00,,,0.00,Wunderground v.1.15,2013-02-12 08:09:00,
2013-02-12 02:14:00,28.2,26.4,30.17,SSW,193,0.0,0.0,93,0.00,,,0.00,Wunderground v.1.15,2013-02-12 08:14:00,
2013-02-12 02:19:00,28.2,26.4,30.16,SSW,193,0.0,0.0,93,0.00,,,0.00,Wunderground v.1.15,2013-02-12 08:19:00,
2013-02-12 02:24:00,28.1,26.3,30.16,SSW,193,0.0,0.0,93,0.00,,,0.00,Wunderground v.1.15,2013-02-12 08:24:00,
2013-02-12 02:29:00,28.0,26.2,30.16,SSW,193,0.0,0.0,93,0.00,,,0.00,Wunderground v.1.15,2013-02-12 08:29:00,
2013-02-12 02:34:00,27.9,26.1,30.15,SSW,193,0.0,0.0,93,0.00,,,0.00,Wunderground v.1.15,2013-02-12 08:34:00,
2013-02-12 02:39:00,27.7,25.9,30.15,SSW,193,0.0,0.0,93,0.00,,,0.00,Wunderground v.1.15,2013-02-12 08:39:00,
2013-02-12 02:44:00,27.5,26.0,30.15,SSW,193,0.0,0.0,94,0.00,,,0.00,Wunderground v.1.15,2013-02-12 08:44:00,
2013-02-12 02:49:00,27.5,26.0,30.15,SSW,193,0.0,0.0,94,0.00,,,0.00,Wunderground v.1.15,2013-02-12 08:49:00,
2013-02-12 02:54:00,27.5,26.0,30.14,SSW,193,0.0,0.0,94,0.00,,,0.00,Wunderground v.1.15,2013-02-12 08:54:00,
2013-02-12 02:59:00,27.3,25.8,30.14,SSW,193,0.0,0.0,94,0.00,,,0.00,Wunderground v.1.15,2013-02-12 08:59:00,
2013-02-12 03:04:00,27.1,25.6,30.14,SSW,193,0.0,0.0,94,0.00,,,0.00,Wunderground v.1.15,2013-02-12 09:04:00,
2013-02-12 03:09:00,27.0,25.5,30.14,SSW,193,0.0,0.0,94,0.00,,,0.00,Wunderground v.1.15,2013-02-12 09:09:00,
2013-02-12 03:14:00,26.8,25.3,30.14,SSW,193,0.0,0.0,94,0.00,,,0.00,Wunderground v.1.15,2013-02-12 09:14:00,
2013-02-12 03:19:00,26.5,25.0,30.14,SSW,193,0.0,0.0,94,0.00,,,0.00,Wunderground v.1.15,2013-02-12 09:19:00,
2013-02-12 03:24:00,26.6,25.4,30.14,SSW,193,0.0,0.0,95,0.00,,,0.00,Wunderground v.1.15,2013-02-12 09:24:00,
2013-02-12 03:29:00,27.0,25.8,30.13,SSW,193,0.0,0.0,95,0.00,,,0.00,Wunderground v.1.15,2013-02-12 09:29:00,
2013-02-12 03:34:00,27.4,26.2,30.13,SSW,193,0.0,0.0,95,0.00,,,0.00,Wunderground v.1.15,2013-02-12 09:34:00,
2013-02-12 03:39:00,27.3,26.1,30.13,SSW,193,0.0,0.0,95,0.00,,,0.00,Wunderground v.1.15,2013-02-12 09:39:00,
2013-02-12 03:44:00,27.1,25.9,30.12,SSW,193,0.0,0.0,95,0.00,,,0.00,Wunderground v.1.15,2013-02-12 09:44:00,
2013-02-12 03:49:00,27.5,26.3,30.12,SSW,193,0.0,0.0,95,0.00,,,0.00,Wunderground v.1.15,2013-02-12 09:49:00,
2013-02-12 03:54:00,27.8,26.8,30.12,SSW,193,0.0,0.0,96,0.00,,,0.00,Wunderground v.1.15,2013-02-12 09:54:00,
2013-02-12 03:59:00,27.8,26.6,30.12,SSW,193,0.0,0.0,95,0.00,,,0.00,Wunderground v.1.15,2013-02-12 09:59:00,
2013-02-12 04:04:00,27.7,26.5,30.12,SSW,210,0.0,0.0,95,0.00,,,0.00,Wunderground v.1.15,2013-02-12 10:04:00,
2013-02-12 04:09:00,27.8,26.6,30.12,SE,135,1.0,2.0,95,0.00,,,0.00,Wunderground v.1.15,2013-02-12 10:09:00,
2013-02-12 04:14:00,28.0,27.0,30.12,SE,131,0.0,2.0,96,0.00,,,0.00,Wunderground v.1.15,2013-02-12 10:14:00,
2013-02-12 04:19:00,28.2,27.2,30.12,ESE,122,0.0,2.0,96,0.00,,,0.00,Wunderground v.1.15,2013-02-12 10:19:00,
2013-02-12 04:24:00,28.3,27.1,30.12,SE,127,1.0,2.0,95,0.00,,,0.00,Wunderground v.1.15,2013-02-12 10:24:00,
2013-02-12 04:29:00,28.3,27.1,30.11,ESE,119,3.0,3.0,95,0.00,,,0.00,Wunderground v.1.15,2013-02-12 10:29:00,
2013-02-12 04:34:00,28.2,27.0,30.11,ESE,120,0.0,3.0,95,0.00,,,0.00,Wunderground v.1.15,2013-02-12 10:34:00,
2013-02-12 04:39:00,28.1,26.9,30.12,ESE,117,0.0,3.0,95,0.00,,,0.00,Wunderground v.1.15,2013-02-12 10:39:00,
2013-02-12 04:44:00,28.0,26.5,30.12,ESE,117,0.0,1.0,94,0.00,,,0.00,Wunderground v.1.15,2013-02-12 10:44:00,
2013-02-12 04:49:00,27.6,26.1,30.11,ESE,117,0.0,1.0,94,0.00,,,0.00,Wunderground v.1.15,2013-02-12 10:49:00,
2013-02-12 04:54:00,27.4,25.9,30.11,ESE,117,0.0,1.0,94,0.00,,,0.00,Wunderground v.1.15,2013-02-12 10:54:00,
2013-02-12 04:59:00,27.2,26.0,30.12,ESE,117,0.0,1.0,95,0.00,,,0.00,Wunderground v.1.15,2013-02-12 10:59:00,
2013-02-12 05:04:00,27.2,26.0,30.12,ESE,117,0.0,1.0,95,0.00,,,0.00,Wunderground v.1.15,2013-02-12 11:04:00,
2013-02-12 05:09:00,27.2,26.0,30.12,ESE,117,0.0,1.0,95,0.00,,,0.00,Wunderground v.1.15,2013-02-12 11:09:00,
2013-02-12 05:14:00,27.3,26.1,30.12,SSE,148,0.0,1.0,95,0.00,,,0.00,Wunderground v.1.15,2013-02-12 11:14:00,
2013-02-12 05:19:00,27.3,26.1,30.12,SE,143,0.0,1.0,95,0.00,,,0.00,Wunderground v.1.15,2013-02-12 11:19:00,
2013-02-12 05:24:00,27.1,25.9,30.13,SE,145,0.0,0.0,95,0.00,,,0.00,Wunderground v.1.15,2013-02-12 11:24:00,
2013-02-12 05:29:00,26.9,25.7,30.13,SE,143,0.0,0.0,95,0.00,,,0.00,Wunderground v.1.15,2013-02-12 11:29:00,
2013-02-12 05:34:00,27.0,25.8,30.13,SE,144,1.0,1.0,95,0.00,,,0.00,Wunderground v.1.15,2013-02-12 11:34:00,
2013-02-12 05:39:00,26.9,25.7,30.13,SE,145,0.0,1.0,95,0.00,,,0.00,Wunderground v.1.15,2013-02-12 11:39:00,
2013-02-12 05:44:00,26.7,25.5,30.14,SE,145,0.0,1.0,95,0.00,,,0.00,Wunderground v.1.15,2013-02-12 11:44:00,
2013-02-12 05:49:00,26.6,25.4,30.14,SE,145,0.0,1.0,95,0.00,,,0.00,Wunderground v.1.15,2013-02-12 11:49:00,
2013-02-12 05:54:00,26.7,25.5,30.13,SE,145,0.0,0.0,95,0.00,,,0.00,Wunderground v.1.15,2013-02-12 11:54:00,
2013-02-12 05:59:00,26.7,25.5,30.13,SE,145,0.0,0.0,95,0.00,,,0.00,Wunderground v.1.15,2013-02-12 11:59:00,
2013-02-12 06:04:00,26.8,25.6,30.12,SE,145,0.0,1.0,95,0.00,,,0.00,Wunderground v.1.15,2013-02-12 12:04:00,
2013-02-12 06:09:00,26.9,25.7,30.12,SSE,150,0.0,2.0,95,0.00,,,0.00,Wunderground v.1.15,2013-02-12 12:09:00,
2013-02-12 06:14:00,27.1,26.1,30.12,SE,145,0.0,2.0,96,0.00,,,0.00,Wunderground v.1.15,2013-02-12 12:14:00,
2013-02-12 06:19:00,27.1,25.9,30.12,SE,139,0.0,2.0,95,0.00,,,0.00,Wunderground v.1.15,2013-02-12 12:19:00,
2013-02-12 06:24:00,27.3,26.3,30.12,WSW,256,0.0,0.0,96,0.00,,,0.00,Wunderground v.1.15,2013-02-12 12:24:00,
2013-02-12 06:29:00,27.3,26.3,30.12,WSW,256,0.0,0.0,96,0.00,,,0.00,Wunderground v.1.15,2013-02-12 12:29:00,
2013-02-12 06:34:00,27.4,26.4,30.12,ENE,72,1.0,2.0,96,0.00,,,0.00,Wunderground v.1.15,2013-02-12 12:34:00,
2013-02-12 06:39:00,27.7,26.7,30.12,ENE,75,1.0,2.0,96,0.00,,,0.00,Wunderground v.1.15,2013-02-12 12:39:00,
2013-02-12 06:44:00,27.9,26.9,30.12,ESE,110,0.0,2.0,96,0.00,,,0.00,Wunderground v.1.15,2013-02-12 12:44:00,
2013-02-12 06:49:00,27.9,26.7,30.13,ESE,110,0.0,2.0,95,0.00,,,0.00,Wunderground v.1.15,2013-02-12 12:49:00,
2013-02-12 06:54:00,27.9,26.7,30.13,ESE,110,0.0,1.0,95,0.00,,,0.00,Wunderground v.1.15,2013-02-12 12:54:00,
2013-02-12 06:59:00,28.0,26.8,30.14,ESE,110,0.0,1.0,95,0.00,,,0.00,Wunderground v.1.15,2013-02-12 12:59:00,
2013-02-12 07:04:00,28.0,26.8,30.14,ESE,110,0.0,0.0,95,0.00,,,0.00,Wunderground v.1.15,2013-02-12 13:04:00,
2013-02-12 07:09:00,28.1,26.9,30.14,ESE,110,0.0,1.0,95,0.00,,,0.00,Wunderground v.1.15,2013-02-12 13:09:00,
2013-02-12 07:14:00,28.3,27.1,30.14,ESE,110,0.0,0.0,95,0.00,,,0.00,Wunderground v.1.15,2013-02-12 13:14:00,
2013-02-12 07:19:00,28.6,27.6,30.14,ESE,110,0.0,0.0,96,0.00,,,0.00,Wunderground v.1.15,2013-02-12 13:19:00,
2013-02-12 17:10:00,43.2,32.6,29.94,ESE,107,3.0,3.0,66,0.00,,,0.00,Wunderground v.1.15,2013-02-12 23:10:00,
2013-02-12 17:16:00,43.1,32.5,29.94,ESE,113,4.0,4.0,66,0.00,,,0.00,Wunderground v.1.15,2013-02-12 23:16:00,
2013-02-12 17:21:00,42.9,32.7,29.93,ESE,114,6.0,6.0,67,0.00,,,0.00,Wunderground v.1.15,2013-02-12 23:21:00,
2013-02-12 17:26:00,42.8,32.6,29.94,ESE,119,1.0,6.0,67,0.00,,,0.00,Wunderground v.1.15,2013-02-12 23:26:00,
2013-02-12 17:31:00,42.6,32.8,29.94,SE,143,2.0,3.0,68,0.00,,,0.00,Wunderground v.1.15,2013-02-12 23:31:00,
2013-02-12 17:36:00,42.4,33.3,29.93,East,97,5.0,6.0,70,0.00,,,0.00,Wunderground v.1.15,2013-02-12 23:36:00,
2013-02-12 17:42:00,41.9,33.5,29.93,East,89,3.0,4.0,72,0.00,,,0.00,Wunderground v.1.15,2013-02-12 23:42:00,
2013-02-12 17:47:00,41.8,33.8,29.93,East,101,3.0,7.0,73,0.00,,,0.00,Wunderground v.1.15,2013-02-12 23:47:00,
2013-02-12 17:52:00,41.6,33.6,29.94,East,84,2.0,7.0,73,0.00,,,0.00,Wunderground v.1.15,2013-02-12 23:52:00,
2013-02-12 17:57:00,41.5,33.8,29.94,ESE,113,1.0,7.0,74,0.00,,,0.00,Wunderground v.1.15,2013-02-12 23:57:00,
2013-02-12 18:02:00,41.3,34.0,29.95,East,83,1.0,2.0,75,0.00,,,0.00,Wunderground v.1.15,2013-02-13 00:02:00,
2013-02-12 18:07:00,41.2,34.2,29.95,NW,306,0.0,2.0,76,0.00,,,0.00,Wunderground v.1.15,2013-02-13 00:07:00,
2013-02-12 18:12:00,41.1,34.4,29.95,East,82,0.0,2.0,77,0.00,,,0.00,Wunderground v.1.15,2013-02-13 00:12:00,
2013-02-12 18:17:00,40.9,34.6,29.95,East,82,0.0,2.0,78,0.00,,,0.00,Wunderground v.1.15,2013-02-13 00:17:00,
2013-02-12 18:22:00,40.7,35.0,29.95,East,84,1.0,1.0,80,0.00,,,0.00,Wunderground v.1.15,2013-02-13 00:22:00,
2013-02-12 18:27:00,40.4,35.0,29.95,East,93,0.0,1.0,81,0.00,,,0.00,Wunderground v.1.15,2013-02-13 00:27:00,
2013-02-12 18:32:00,40.3,35.2,29.96,NW,311,0.0,0.0,82,0.00,,,0.00,Wunderground v.1.15,2013-02-13 00:32:00,
2013-02-12 18:37:00,40.3,34.6,29.96,NW,323,0.0,1.0,80,0.00,,,0.00,Wunderground v.1.15,2013-02-13 00:37:00,
2013-02-12 18:42:00,40.3,35.2,29.97,West,274,0.0,1.0,82,0.00,,,0.00,Wunderground v.1.15,2013-02-13 00:42:00,
2013-02-12 18:47:00,40.1,35.4,29.97,West,274,0.0,1.0,83,0.00,,,0.01,Wunderground v.1.15,2013-02-13 00:47:00,
2013-02-12 18:52:00,40.0,35.3,29.96,ESE,120,0.0,1.0,83,0.00,,,0.01,Wunderground v.1.15,2013-02-13 00:52:00,
2013-02-12 18:57:00,39.9,35.5,29.96,NE,39,0.0,2.0,84,0.00,,,0.01,Wunderground v.1.15,2013-02-13 00:57:00,
2013-02-12 19:02:00,39.7,35.3,29.97,NW,313,0.0,2.0,84,0.00,,,0.01,Wunderground v.1.15,2013-02-13 01:02:00,
2013-02-12 19:07:00,39.7,35.6,29.97,WNW,290,1.0,3.0,85,0.00,,,0.01,Wunderground v.1.15,2013-02-13 01:07:00,
2013-02-12 19:12:00,39.5,35.7,29.97,WSW,245,0.0,1.0,86,0.00,,,0.02,Wunderground v.1.15,2013-02-13 01:12:00,
2013-02-12 19:17:00,39.4,35.6,29.98,NNW,342,1.0,2.0,86,0.00,,,0.02,Wunderground v.1.15,2013-02-13 01:17:00,
2013-02-12 19:22:00,39.4,35.6,29.98,ENE,71,0.0,2.0,86,0.00,,,0.02,Wunderground v.1.15,2013-02-13 01:22:00,
2013-02-12 19:27:00,39.3,35.5,29.99,SSE,158,0.0,2.0,86,0.04,,,0.03,Wunderground v.1.15,2013-02-13 01:27:00,
2013-02-12 19:32:00,39.2,35.1,29.98,SSE,158,0.0,0.0,85,0.04,,,0.03,Wunderground v.1.15,2013-02-13 01:32:00,
2013-02-12 19:37:00,39.1,35.0,29.98,ENE,58,1.0,2.0,85,0.04,,,0.03,Wunderground v.1.15,2013-02-13 01:37:00,
2013-02-12 19:42:00,39.0,35.2,29.98,ENE,64,0.0,1.0,86,0.04,,,0.03,Wunderground v.1.15,2013-02-13 01:42:00,
2013-02-12 19:47:00,38.9,35.4,29.98,ENE,62,0.0,3.0,87,0.00,,,0.03,Wunderground v.1.15,2013-02-13 01:47:00,
2013-02-12 19:52:00,38.7,35.2,29.98,East,96,2.0,2.0,87,0.00,,,0.03,Wunderground v.1.15,2013-02-13 01:52:00,
2013-02-12 19:57:00,38.7,34.9,29.98,ESE,113,0.0,2.0,86,0.00,,,0.03,Wunderground v.1.15,2013-02-13 01:57:00,
2013-02-12 20:02:00,38.7,35.2,29.98,ESE,112,0.0,1.0,87,0.00,,,0.04,Wunderground v.1.15,2013-02-13 02:02:00,
2013-02-12 20:07:00,38.6,35.4,29.98,ESE,112,0.0,1.0,88,0.00,,,0.04,Wunderground v.1.15,2013-02-13 02:07:00,
2013-02-12 20:12:00,38.5,35.3,29.98,ESE,111,0.0,0.0,88,0.00,,,0.04,Wunderground v.1.15,2013-02-13 02:12:00,
2013-02-12 20:17:00,38.4,35.4,29.98,ESE,111,0.0,0.0,89,0.00,,,0.04,Wunderground v.1.15,2013-02-13 02:17:00,
2013-02-12 20:22:00,38.4,35.7,29.99,ESE,112,0.0,0.0,90,0.00,,,0.05,Wunderground v.1.15,2013-02-13 02:22:00,
2013-02-12 20:27:00,38.3,35.9,29.99,ESE,111,0.0,1.0,91,0.00,,,0.05,Wunderground v.1.15,2013-02-13 02:27:00,
2013-02-12 20:32:00,38.2,35.8,29.99,West,281,1.0,2.0,91,0.07,,,0.06,Wunderground v.1.15,2013-02-13 02:32:00,
2013-02-12 20:37:00,38.1,35.7,29.99,WNW,302,3.0,3.0,91,0.07,,,0.06,Wunderground v.1.15,2013-02-13 02:37:00,
2013-02-12 20:42:00,37.9,35.5,29.99,NW,304,2.0,4.0,91,0.05,,,0.07,Wunderground v.1.15,2013-02-13 02:42:00,
2013-02-12 20:47:00,37.7,35.3,29.99,NNW,347,1.0,5.0,91,0.05,,,0.07,Wunderground v.1.15,2013-02-13 02:47:00,
2013-02-12 20:52:00,37.5,35.1,30.00,NNW,335,1.0,2.0,91,0.06,,,0.08,Wunderground v.1.15,2013-02-13 02:52:00,
2013-02-12 20:57:00,37.3,34.9,30.00,East,81,2.0,3.0,91,0.06,,,0.08,Wunderground v.1.15,2013-02-13 02:57:00,
2013-02-12 21:02:00,37.2,34.8,30.00,NE,39,2.0,3.0,91,0.05,,,0.08,Wunderground v.1.15,2013-02-13 03:02:00,
2013-02-12 21:07:00,37.0,34.6,30.00,NNE,13,1.0,4.0,91,0.04,,,0.09,Wunderground v.1.15,2013-02-13 03:07:00,
2013-02-12 21:12:00,36.9,34.8,30.00,ENE,58,1.0,2.0,92,0.04,,,0.09,Wunderground v.1.15,2013-02-13 03:12:00,
2013-02-12 21:17:00,36.7,34.6,30.00,NE,41,2.0,3.0,92,0.07,,,0.10,Wunderground v.1.15,2013-02-13 03:17:00,
2013-02-12 21:22:00,36.5,34.4,30.00,NE,53,2.0,5.0,92,0.12,,,0.11,Wunderground v.1.15,2013-02-13 03:22:00,
2013-02-12 21:27:00,36.3,33.9,30.00,ENE,72,2.0,5.0,91,0.14,,,0.12,Wunderground v.1.15,2013-02-13 03:27:00,
2013-02-12 21:32:00,36.3,34.2,30.00,ENE,68,1.0,3.0,92,0.12,,,0.13,Wunderground v.1.15,2013-02-13 03:32:00,
2013-02-12 21:37:00,36.2,34.1,30.00,East,95,0.0,3.0,92,0.09,,,0.14,Wunderground v.1.15,2013-02-13 03:37:00,
2013-02-12 21:42:00,36.1,34.0,30.00,NNE,20,1.0,1.0,92,0.07,,,0.14,Wunderground v.1.15,2013-02-13 03:42:00,
2013-02-12 21:47:00,36.0,33.9,30.01,ENE,75,0.0,1.0,92,0.04,,,0.14,Wunderground v.1.15,2013-02-13 03:47:00,
2013-02-12 21:52:00,36.0,34.2,30.01,ENE,73,0.0,1.0,93,0.00,,,0.14,Wunderground v.1.15,2013-02-13 03:52:00,
2013-02-12 21:57:00,36.0,34.2,30.01,NNE,15,1.0,2.0,93,0.00,,,0.15,Wunderground v.1.15,2013-02-13 03:57:00,
2013-02-12 22:02:00,36.0,34.2,30.01,NE,49,1.0,2.0,93,0.00,,,0.15,Wunderground v.1.15,2013-02-13 04:02:00,
2013-02-12 22:07:00,36.1,34.3,30.01,ENE,57,0.0,2.0,93,0.00,,,0.15,Wunderground v.1.15,2013-02-13 04:07:00,
2013-02-12 22:12:00,36.0,34.2,30.01,ENE,57,2.0,2.0,93,0.00,,,0.16,Wunderground v.1.15,2013-02-13 04:12:00,
2013-02-12 22:17:00,36.0,34.2,30.00,NE,47,2.0,4.0,93,0.00,,,0.16,Wunderground v.1.15,2013-02-13 04:17:00,
2013-02-12 22:22:00,36.0,34.2,30.00,ENE,76,1.0,2.0,93,0.00,,,0.16,Wunderground v.1.15,2013-02-13 04:22:00,
2013-02-12 22:27:00,36.0,34.2,30.00,ENE,58,1.0,3.0,93,0.05,,,0.17,Wunderground v.1.15,2013-02-13 04:27:00,
2013-02-12 22:32:00,36.1,34.3,30.00,NE,43,1.0,2.0,93,0.05,,,0.17,Wunderground v.1.15,2013-02-13 04:32:00,
2013-02-12 22:37:00,36.0,34.2,30.00,East,97,0.0,2.0,93,0.05,,,0.17,Wunderground v.1.15,2013-02-13 04:37:00,
2013-02-12 22:42:00,36.0,34.2,30.00,NNE,27,1.0,1.0,93,0.04,,,0.18,Wunderground v.1.15,2013-02-13 04:42:00,
2013-02-12 22:47:00,35.9,34.1,30.00,NE,46,2.0,5.0,93,0.04,,,0.18,Wunderground v.1.15,2013-02-13 04:47:00,
2013-02-12 22:52:00,35.8,34.0,30.00,North,355,1.0,3.0,93,0.04,,,0.18,Wunderground v.1.15,2013-02-13 04:52:00,
2013-02-12 22:57:00,35.8,34.0,30.00,NNE,25,1.0,4.0,93,0.04,,,0.19,Wunderground v.1.15,2013-02-13 04:57:00,
2013-02-12 23:00:00,35.7,33.9,30.00,NE,37,2.0,4.0,93,0.04,,,0.19,Wunderground v.1.15,2013-02-13 05:00:00,
2013-02-12 23:05:00,35.5,33.7,30.00,ENE,75,2.0,5.0,93,0.04,,,0.19,Wunderground v.1.15,2013-02-13 05:05:00,
2013-02-12 23:10:00,35.5,33.7,30.00,ENE,65,4.0,4.0,93,0.04,,,0.19,Wunderground v.1.15,2013-02-13 05:10:00,
2013-02-12 23:15:00,35.3,33.5,30.00,ENE,78,1.0,4.0,93,0.00,,,0.20,Wunderground v.1.15,2013-02-13 05:15:00,
2013-02-12 23:20:00,35.3,33.5,30.00,East,81,0.0,2.0,93,0.00,,,0.20,Wunderground v.1.15,2013-02-13 05:20:00,
2013-02-12 23:25:00,35.2,33.4,29.99,ESE,103,2.0,3.0,93,0.00,,,0.20,Wunderground v.1.15,2013-02-13 05:25:00,
2013-02-12 23:30:00,35.1,33.3,30.00,East,81,0.0,1.0,93,0.00,,,0.20,Wunderground v.1.15,2013-02-13 05:30:00,
2013-02-12 23:35:00,35.1,33.3,30.00,SE,129,1.0,2.0,93,0.00,,,0.20,Wunderground v.1.15,2013-02-13 05:35:00,
2013-02-12 23:40:00,35.0,33.2,30.00,ESE,105,0.0,1.0,93,0.00,,,0.20,Wunderground v.1.15,2013-02-13 05:40:00,
2013-02-12 23:45:00,35.0,33.2,30.00,ENE,78,1.0,3.0,93,0.00,,,0.20,Wunderground v.1.15,2013-02-13 05:45:00,
2013-02-12 23:50:00,34.9,33.1,29.99,NE,54,1.0,1.0,93,0.00,,,0.20,Wunderground v.1.15,2013-02-13 05:50:00,
2013-02-12 23:55:00,34.9,33.1,29.99,NNE,20,0.0,1.0,93,0.00,,,0.21,Wunderground v.1.15,2013-02-13 05:55:00,